Hlavní strana
METAR-TAF:

METAR-TAF

Letiště :

Newark-Heath Airport

Newark, Ohio, Spojené státy americké

zeměpisná šířka: 40-01-22N, zeměpisná délka: 082-27-45W, výška: 269 m

Aktuální stav počasí

Zpráva byla vytvořena před 13 minutami, v 07:54 UTC
Bezvětří
Teplota 14°C
Vlhkost vzduchu 88%
Tlak 1017 hPa
Viditelnost: 4.8 km
Oblačno až skoro zataženo ve výšce 200 ft
Zataženo ve výšce 9500 ft
kouřmo

METAR: KVTA 300754Z AUTO 00000KT 3SM BR BKN002 OVC095 14/12 A3003 RMK AO2 SLP164 T01390122 $

Čas: 04:07 (08:07 UTC)


TAF: chybějící

Stav a předpovědi počasí z více než 4 000 letišť (zprávy METAR a TAF).

Červené a žluté tečky na mapě představují dostupné meteorologické stanice.

Když kurzor umístíte na tečku, zobrazí se název stanice.

Pak kliknutím zobrazíte stav a předpověď počasí.

Chcete-li změnit mapu, kliknutím na zelené tlačítko se znaménkem +mapu přiblížíte, kliknutím na zelené tlačítko se znaménkem – mapu oddálíte a kliknutím na zelené šipky přejdete na sousední mapy.


METAR-TAF: